sensor_id;sensor_type;location;lat;lon;timestamp;pressure;altitude;pressure_sealevel;temperature;humidity
21555;BME280;10938;44.794;-0.676;2022-11-03T00:00:00;101125.97;;;15.45;94.20
21555;BME280;10938;44.794;-0.676;2022-11-03T00:02:25;101119.00;;;15.54;93.39
21555;BME280;10938;44.794;-0.676;2022-11-03T00:04:50;101118.09;;;15.24;96.43
21555;BME280;10938;44.794;-0.676;2022-11-03T00:07:20;101103.19;;;15.25;96.75
21555;BME280;10938;44.794;-0.676;2022-11-03T00:09:46;101097.06;;;15.35;95.30
21555;BME280;10938;44.794;-0.676;2022-11-03T00:12:11;101098.81;;;15.33;95.98
21555;BME280;10938;44.794;-0.676;2022-11-03T00:14:37;101098.81;;;15.46;95.28
21555;BME280;10938;44.794;-0.676;2022-11-03T00:17:02;101093.59;;;15.50;95.95
21555;BME280;10938;44.794;-0.676;2022-11-03T00:19:28;101087.44;;;15.73;94.14
21555;BME280;10938;44.794;-0.676;2022-11-03T00:21:53;101079.50;;;15.75;94.16
21555;BME280;10938;44.794;-0.676;2022-11-03T00:24:18;101078.69;;;15.67;95.01
21555;BME280;10938;44.794;-0.676;2022-11-03T00:26:44;101084.78;;;15.84;93.79
21555;BME280;10938;44.794;-0.676;2022-11-03T00:29:13;101080.41;;;15.74;94.69
21555;BME280;10938;44.794;-0.676;2022-11-03T00:31:40;101072.50;;;15.81;94.28
21555;BME280;10938;44.794;-0.676;2022-11-03T00:34:06;101076.81;;;15.99;92.98
21555;BME280;10938;44.794;-0.676;2022-11-03T00:36:36;101074.16;;;16.13;91.72
21555;BME280;10938;44.794;-0.676;2022-11-03T00:39:03;101058.44;;;16.01;92.32
21555;BME280;10938;44.794;-0.676;2022-11-03T00:41:29;101052.22;;;16.15;91.98
21555;BME280;10938;44.794;-0.676;2022-11-03T00:43:54;101051.31;;;16.19;91.41
21555;BME280;10938;44.794;-0.676;2022-11-03T00:46:21;101054.78;;;16.29;90.90
21555;BME280;10938;44.794;-0.676;2022-11-03T00:48:48;101049.50;;;16.36;90.37
21555;BME280;10938;44.794;-0.676;2022-11-03T00:51:25;101046.03;;;16.27;91.15
21555;BME280;10938;44.794;-0.676;2022-11-03T00:56:22;101043.34;;;16.31;90.88
21555;BME280;10938;44.794;-0.676;2022-11-03T00:58:48;101041.66;;;16.27;90.93
21555;BME280;10938;44.794;-0.676;2022-11-03T01:01:28;101035.47;;;16.31;90.96
21555;BME280;10938;44.794;-0.676;2022-11-03T01:03:57;101046.78;;;16.48;90.14
21555;BME280;10938;44.794;-0.676;2022-11-03T01:06:48;101036.31;;;16.39;90.50
21555;BME280;10938;44.794;-0.676;2022-11-03T01:09:37;101029.34;;;16.29;90.87
21555;BME280;10938;44.794;-0.676;2022-11-03T01:12:13;101018.81;;;16.28;91.36
21555;BME280;10938;44.794;-0.676;2022-11-03T01:14:42;101006.59;;;16.19;91.26
21555;BME280;10938;44.794;-0.676;2022-11-03T01:17:14;100998.78;;;16.07;92.27
21555;BME280;10938;44.794;-0.676;2022-11-03T01:19:40;101005.78;;;16.05;91.91
21555;BME280;10938;44.794;-0.676;2022-11-03T01:22:05;100996.13;;;16.10;91.73
21555;BME280;10938;44.794;-0.676;2022-11-03T01:24:30;100987.56;;;15.66;95.33
21555;BME280;10938;44.794;-0.676;2022-11-03T01:26:56;100993.72;;;15.56;96.59
21555;BME280;10938;44.794;-0.676;2022-11-03T01:29:21;100988.44;;;15.71;95.25
21555;BME280;10938;44.794;-0.676;2022-11-03T01:31:47;100992.81;;;15.66;95.57
21555;BME280;10938;44.794;-0.676;2022-11-03T01:34:15;100994.59;;;15.56;96.51
21555;BME280;10938;44.794;-0.676;2022-11-03T01:36:42;100982.34;;;15.54;96.89
21555;BME280;10938;44.794;-0.676;2022-11-03T01:39:12;100985.78;;;15.65;95.79
21555;BME280;10938;44.794;-0.676;2022-11-03T01:41:39;100983.22;;;15.43;98.35
21555;BME280;10938;44.794;-0.676;2022-11-03T01:47:13;100957.81;;;15.49;97.95
21555;BME280;10938;44.794;-0.676;2022-11-03T01:49:59;100952.56;;;15.44;98.08
21555;BME280;10938;44.794;-0.676;2022-11-03T01:52:33;100946.47;;;15.22;100.00
21555;BME280;10938;44.794;-0.676;2022-11-03T01:55:34;100937.66;;;15.43;99.35
21555;BME280;10938;44.794;-0.676;2022-11-03T01:58:04;100940.31;;;15.35;98.98
21555;BME280;10938;44.794;-0.676;2022-11-03T02:00:30;100941.19;;;15.37;99.42
21555;BME280;10938;44.794;-0.676;2022-11-03T02:02:55;100939.41;;;15.52;98.13
21555;BME280;10938;44.794;-0.676;2022-11-03T02:05:23;100935.91;;;15.60;97.44
21555;BME280;10938;44.794;-0.676;2022-11-03T02:07:52;100938.47;;;15.65;96.51
21555;BME280;10938;44.794;-0.676;2022-11-03T02:10:21;100929.78;;;15.57;97.06
21555;BME280;10938;44.794;-0.676;2022-11-03T02:12:48;100920.97;;;15.65;96.81
21555;BME280;10938;44.794;-0.676;2022-11-03T02:15:15;100920.03;;;15.75;95.98
21555;BME280;10938;44.794;-0.676;2022-11-03T02:17:42;100916.53;;;15.75;95.77
21555;BME280;10938;44.794;-0.676;2022-11-03T02:25:56;100920.84;;;15.89;94.37
21555;BME280;10938;44.794;-0.676;2022-11-03T02:28:24;100908.56;;;15.91;93.84
21555;BME280;10938;44.794;-0.676;2022-11-03T02:33:36;100875.44;;;15.60;96.84
21555;BME280;10938;44.794;-0.676;2022-11-03T02:38:40;100877.22;;;15.54;97.53
21555;BME280;10938;44.794;-0.676;2022-11-03T02:41:07;100869.34;;;15.44;98.62
21555;BME280;10938;44.794;-0.676;2022-11-03T02:43:33;100865.72;;;15.71;96.44
21555;BME280;10938;44.794;-0.676;2022-11-03T02:45:59;100872.66;;;15.89;95.12
21555;BME280;10938;44.794;-0.676;2022-11-03T02:48:26;100871.69;;;16.02;93.66
21555;BME280;10938;44.794;-0.676;2022-11-03T02:50:53;100860.38;;;15.91;94.46
21555;BME280;10938;44.794;-0.676;2022-11-03T02:53:18;100852.59;;;15.73;94.98
21555;BME280;10938;44.794;-0.676;2022-11-03T03:01:07;100845.56;;;15.75;95.30
21555;BME280;10938;44.794;-0.676;2022-11-03T03:03:50;100836.94;;;15.52;97.58
21555;BME280;10938;44.794;-0.676;2022-11-03T03:06:29;100832.41;;;15.81;95.08
21555;BME280;10938;44.794;-0.676;2022-11-03T03:09:04;100824.66;;;15.57;97.08
21555;BME280;10938;44.794;-0.676;2022-11-03T03:11:32;100823.69;;;15.68;96.46
21555;BME280;10938;44.794;-0.676;2022-11-03T03:14:11;100821.13;;;15.64;96.78
21555;BME280;10938;44.794;-0.676;2022-11-03T03:16:43;100817.47;;;15.83;95.17
21555;BME280;10938;44.794;-0.676;2022-11-03T03:19:20;100806.97;;;15.80;95.22
21555;BME280;10938;44.794;-0.676;2022-11-03T03:21:47;100803.50;;;15.75;96.42
21555;BME280;10938;44.794;-0.676;2022-11-03T03:24:27;100792.19;;;15.65;96.56
21555;BME280;10938;44.794;-0.676;2022-11-03T03:26:56;100791.25;;;15.74;96.00
21555;BME280;10938;44.794;-0.676;2022-11-03T03:29:30;100785.28;;;15.51;98.39
21555;BME280;10938;44.794;-0.676;2022-11-03T03:31:59;100786.13;;;15.53;98.21
21555;BME280;10938;44.794;-0.676;2022-11-03T03:34:28;100794.72;;;15.79;96.28
21555;BME280;10938;44.794;-0.676;2022-11-03T03:36:56;100791.16;;;15.86;95.57
21555;BME280;10938;44.794;-0.676;2022-11-03T03:39:25;100790.13;;;16.05;94.39
21555;BME280;10938;44.794;-0.676;2022-11-03T03:41:54;100787.59;;;15.98;95.07
21555;BME280;10938;44.794;-0.676;2022-11-03T03:44:20;100783.06;;;16.13;93.73
21555;BME280;10938;44.794;-0.676;2022-11-03T03:46:50;100785.78;;;16.04;94.53
21555;BME280;10938;44.794;-0.676;2022-11-03T03:49:17;100782.31;;;15.96;94.41
21555;BME280;10938;44.794;-0.676;2022-11-03T03:51:43;100783.13;;;16.03;94.03
21555;BME280;10938;44.794;-0.676;2022-11-03T03:54:09;100782.25;;;16.07;93.67
21555;BME280;10938;44.794;-0.676;2022-11-03T03:56:40;100771.59;;;16.19;92.76
21555;BME280;10938;44.794;-0.676;2022-11-03T03:59:06;100772.69;;;15.92;94.24
21555;BME280;10938;44.794;-0.676;2022-11-03T04:01:32;100770.94;;;15.97;94.38
21555;BME280;10938;44.794;-0.676;2022-11-03T04:03:58;100766.56;;;15.91;94.58
21555;BME280;10938;44.794;-0.676;2022-11-03T04:06:23;100774.38;;;16.04;93.82
21555;BME280;10938;44.794;-0.676;2022-11-03T04:08:48;100775.28;;;16.01;93.98
21555;BME280;10938;44.794;-0.676;2022-11-03T04:11:14;100764.75;;;16.01;93.95
21555;BME280;10938;44.794;-0.676;2022-11-03T04:13:58;100759.44;;;16.07;93.87
21555;BME280;10938;44.794;-0.676;2022-11-03T04:16:42;100755.88;;;16.14;93.24
21555;BME280;10938;44.794;-0.676;2022-11-03T04:19:26;100759.47;;;16.04;93.99
21555;BME280;10938;44.794;-0.676;2022-11-03T04:22:10;100752.34;;;16.15;93.22
21555;BME280;10938;44.794;-0.676;2022-11-03T04:24:49;100758.56;;;16.05;94.29
21555;BME280;10938;44.794;-0.676;2022-11-03T04:27:35;100750.66;;;16.10;93.36
21555;BME280;10938;44.794;-0.676;2022-11-03T04:30:15;100746.25;;;16.10;93.65
21555;BME280;10938;44.794;-0.676;2022-11-03T04:32:43;100746.19;;;16.16;92.96
21555;BME280;10938;44.794;-0.676;2022-11-03T04:35:17;100732.94;;;16.25;92.96
21555;BME280;10938;44.794;-0.676;2022-11-03T04:38:07;100718.81;;;16.35;92.27
21555;BME280;10938;44.794;-0.676;2022-11-03T04:40:34;100723.38;;;16.20;93.02
21555;BME280;10938;44.794;-0.676;2022-11-03T04:42:59;100734.78;;;16.20;92.33
21555;BME280;10938;44.794;-0.676;2022-11-03T04:45:28;100730.50;;;16.06;94.12
21555;BME280;10938;44.794;-0.676;2022-11-03T04:47:54;100720.84;;;16.09;93.60
21555;BME280;10938;44.794;-0.676;2022-11-03T04:50:23;100716.47;;;16.10;94.05
21555;BME280;10938;44.794;-0.676;2022-11-03T04:52:56;100708.53;;;16.14;93.40
21555;BME280;10938;44.794;-0.676;2022-11-03T04:55:23;100711.19;;;16.10;93.69
21555;BME280;10938;44.794;-0.676;2022-11-03T04:57:53;100710.97;;;16.34;92.67
21555;BME280;10938;44.794;-0.676;2022-11-03T05:00:19;100700.47;;;16.31;92.10
21555;BME280;10938;44.794;-0.676;2022-11-03T05:02:46;100700.47;;;16.29;92.49
21555;BME280;10938;44.794;-0.676;2022-11-03T05:05:17;100697.69;;;16.43;91.69
21555;BME280;10938;44.794;-0.676;2022-11-03T05:07:45;100698.66;;;16.36;91.61
21555;BME280;10938;44.794;-0.676;2022-11-03T05:10:17;100703.88;;;16.39;91.90
21555;BME280;10938;44.794;-0.676;2022-11-03T05:12:43;100704.78;;;16.36;92.05
21555;BME280;10938;44.794;-0.676;2022-11-03T05:15:36;100687.31;;;16.29;92.84
21555;BME280;10938;44.794;-0.676;2022-11-03T05:18:34;100697.69;;;16.43;92.45
21555;BME280;10938;44.794;-0.676;2022-11-03T05:21:02;100692.56;;;16.31;91.94
21555;BME280;10938;44.794;-0.676;2022-11-03T05:23:31;100682.91;;;16.31;92.58
21555;BME280;10938;44.794;-0.676;2022-11-03T05:26:01;100683.66;;;16.42;92.02
21555;BME280;10938;44.794;-0.676;2022-11-03T05:28:34;100685.34;;;16.49;91.13
21555;BME280;10938;44.794;-0.676;2022-11-03T05:31:16;100687.13;;;16.47;91.85
21555;BME280;10938;44.794;-0.676;2022-11-03T05:33:43;100676.56;;;16.49;91.65
21555;BME280;10938;44.794;-0.676;2022-11-03T05:36:13;100677.38;;;16.57;91.09
21555;BME280;10938;44.794;-0.676;2022-11-03T05:38:41;100687.97;;;16.51;91.43
21555;BME280;10938;44.794;-0.676;2022-11-03T05:41:21;100674.84;;;16.46;91.66
21555;BME280;10938;44.794;-0.676;2022-11-03T05:44:02;100667.09;;;16.33;93.22
21555;BME280;10938;44.794;-0.676;2022-11-03T05:46:29;100661.66;;;16.48;92.17
21555;BME280;10938;44.794;-0.676;2022-11-03T05:48:56;100666.03;;;16.51;91.66
21555;BME280;10938;44.794;-0.676;2022-11-03T05:51:28;100667.72;;;16.55;91.79
21555;BME280;10938;44.794;-0.676;2022-11-03T05:53:57;100681.69;;;16.63;90.57
21555;BME280;10938;44.794;-0.676;2022-11-03T05:56:24;100680.88;;;16.59;91.45
21555;BME280;10938;44.794;-0.676;2022-11-03T05:58:51;100682.63;;;16.59;91.47
21555;BME280;10938;44.794;-0.676;2022-11-03T06:03:43;100678.09;;;16.70;91.40
21555;BME280;10938;44.794;-0.676;2022-11-03T06:06:19;100666.00;;;16.54;93.18
21555;BME280;10938;44.794;-0.676;2022-11-03T06:08:45;100650.41;;;16.37;94.50
21555;BME280;10938;44.794;-0.676;2022-11-03T06:11:20;100644.41;;;16.24;96.09
21555;BME280;10938;44.794;-0.676;2022-11-03T06:13:46;100638.31;;;16.19;96.58
21555;BME280;10938;44.794;-0.676;2022-11-03T06:16:35;100631.19;;;16.30;96.63
21555;BME280;10938;44.794;-0.676;2022-11-03T06:19:12;100632.16;;;16.23;95.99
21555;BME280;10938;44.794;-0.676;2022-11-03T06:21:40;100630.13;;;16.45;94.08
21555;BME280;10938;44.794;-0.676;2022-11-03T06:24:08;100627.38;;;16.56;93.72
21555;BME280;10938;44.794;-0.676;2022-11-03T06:26:35;100625.69;;;16.48;93.97
21555;BME280;10938;44.794;-0.676;2022-11-03T06:29:00;100621.84;;;16.77;91.84
21555;BME280;10938;44.794;-0.676;2022-11-03T06:31:27;100628.88;;;16.78;91.67
21555;BME280;10938;44.794;-0.676;2022-11-03T06:33:54;100613.84;;;16.83;91.25
21555;BME280;10938;44.794;-0.676;2022-11-03T06:36:26;100614.00;;;16.74;91.65
21555;BME280;10938;44.794;-0.676;2022-11-03T06:38:56;100596.50;;;16.70;92.00
21555;BME280;10938;44.794;-0.676;2022-11-03T06:41:24;100599.25;;;16.61;92.46
21555;BME280;10938;44.794;-0.676;2022-11-03T06:43:50;100602.72;;;16.63;92.95
21555;BME280;10938;44.794;-0.676;2022-11-03T06:46:21;100602.81;;;16.54;93.62
21555;BME280;10938;44.794;-0.676;2022-11-03T06:48:48;100590.53;;;16.53;93.86
21555;BME280;10938;44.794;-0.676;2022-11-03T06:51:19;100593.19;;;16.53;94.22
21555;BME280;10938;44.794;-0.676;2022-11-03T06:53:47;100593.91;;;16.65;93.08
21555;BME280;10938;44.794;-0.676;2022-11-03T06:56:21;100588.03;;;16.43;94.12
21555;BME280;10938;44.794;-0.676;2022-11-03T06:58:49;100588.03;;;16.43;95.06
21555;BME280;10938;44.794;-0.676;2022-11-03T07:01:21;100583.88;;;16.27;96.50
21555;BME280;10938;44.794;-0.676;2022-11-03T07:03:51;100580.00;;;16.57;94.30
21555;BME280;10938;44.794;-0.676;2022-11-03T07:06:22;100588.78;;;16.56;94.10
21555;BME280;10938;44.794;-0.676;2022-11-03T07:08:55;100579.09;;;16.60;94.05
21555;BME280;10938;44.794;-0.676;2022-11-03T07:11:26;100584.31;;;16.64;93.75
21555;BME280;10938;44.794;-0.676;2022-11-03T07:14:00;100585.81;;;16.79;93.35
21555;BME280;10938;44.794;-0.676;2022-11-03T07:16:31;100583.19;;;16.79;92.65
21555;BME280;10938;44.794;-0.676;2022-11-03T07:19:02;100570.91;;;16.81;92.79
21555;BME280;10938;44.794;-0.676;2022-11-03T07:21:33;100578.59;;;16.94;92.11
21555;BME280;10938;44.794;-0.676;2022-11-03T07:24:03;100576.59;;;17.09;91.04
21555;BME280;10938;44.794;-0.676;2022-11-03T07:26:32;100572.66;;;16.79;92.77
21555;BME280;10938;44.794;-0.676;2022-11-03T07:28:59;100577.75;;;16.91;92.19
21555;BME280;10938;44.794;-0.676;2022-11-03T07:31:25;100564.81;;;16.76;93.59
21555;BME280;10938;44.794;-0.676;2022-11-03T07:33:57;100558.31;;;16.99;91.88
21555;BME280;10938;44.794;-0.676;2022-11-03T07:36:24;100570.31;;;17.16;91.15
21555;BME280;10938;44.794;-0.676;2022-11-03T07:38:53;100561.44;;;17.21;90.87
21555;BME280;10938;44.794;-0.676;2022-11-03T07:41:26;100559.84;;;17.14;90.91
21555;BME280;10938;44.794;-0.676;2022-11-03T07:43:55;100564.00;;;17.27;90.92
21555;BME280;10938;44.794;-0.676;2022-11-03T07:46:21;100569.88;;;17.43;89.50
21555;BME280;10938;44.794;-0.676;2022-11-03T07:48:48;100566.41;;;17.41;89.93
21555;BME280;10938;44.794;-0.676;2022-11-03T07:51:30;100557.50;;;17.46;89.52
21555;BME280;10938;44.794;-0.676;2022-11-03T07:54:20;100558.56;;;17.36;90.72
21555;BME280;10938;44.794;-0.676;2022-11-03T07:56:51;100547.13;;;17.37;90.76
21555;BME280;10938;44.794;-0.676;2022-11-03T07:59:21;100556.50;;;17.54;90.21
21555;BME280;10938;44.794;-0.676;2022-11-03T08:01:55;100554.81;;;17.49;90.60
21555;BME280;10938;44.794;-0.676;2022-11-03T08:04:26;100557.00;;;17.77;89.07
21555;BME280;10938;44.794;-0.676;2022-11-03T08:06:53;100564.50;;;17.96;87.80
21555;BME280;10938;44.794;-0.676;2022-11-03T08:09:19;100565.19;;;18.06;86.98
21555;BME280;10938;44.794;-0.676;2022-11-03T08:11:44;100564.44;;;18.01;87.58
21555;BME280;10938;44.794;-0.676;2022-11-03T08:14:10;100558.31;;;17.99;88.42
21555;BME280;10938;44.794;-0.676;2022-11-03T08:16:36;100555.53;;;18.07;87.42
21555;BME280;10938;44.794;-0.676;2022-11-03T08:19:02;100542.00;;;18.22;86.70
21555;BME280;10938;44.794;-0.676;2022-11-03T08:21:27;100553.88;;;18.42;85.94
21555;BME280;10938;44.794;-0.676;2022-11-03T08:23:53;100544.81;;;18.56;85.26
21555;BME280;10938;44.794;-0.676;2022-11-03T08:26:19;100550.38;;;18.82;84.15
21555;BME280;10938;44.794;-0.676;2022-11-03T08:28:45;100547.16;;;18.69;83.52
21555;BME280;10938;44.794;-0.676;2022-11-03T08:31:10;100544.34;;;18.77;83.48
21555;BME280;10938;44.794;-0.676;2022-11-03T08:33:35;100540.13;;;19.05;82.94
21555;BME280;10938;44.794;-0.676;2022-11-03T08:36:02;100539.28;;;19.05;82.51
21555;BME280;10938;44.794;-0.676;2022-11-03T08:38:28;100531.22;;;19.09;82.91
21555;BME280;10938;44.794;-0.676;2022-11-03T08:40:54;100534.03;;;19.01;83.11
21555;BME280;10938;44.794;-0.676;2022-11-03T08:43:20;100529.03;;;19.26;82.06
21555;BME280;10938;44.794;-0.676;2022-11-03T08:45:45;100529.00;;;19.28;81.87
21555;BME280;10938;44.794;-0.676;2022-11-03T08:48:11;100533.19;;;19.35;81.43
21555;BME280;10938;44.794;-0.676;2022-11-03T08:50:37;100524.50;;;19.31;81.54
21555;BME280;10938;44.794;-0.676;2022-11-03T08:53:03;100523.81;;;19.23;82.11
21555;BME280;10938;44.794;-0.676;2022-11-03T08:55:28;100523.66;;;19.29;82.09
21555;BME280;10938;44.794;-0.676;2022-11-03T08:57:53;100510.44;;;19.63;80.79
21555;BME280;10938;44.794;-0.676;2022-11-03T09:00:19;100519.34;;;19.61;80.88
21555;BME280;10938;44.794;-0.676;2022-11-03T09:02:45;100515.00;;;19.89;80.06
21555;BME280;10938;44.794;-0.676;2022-11-03T09:05:11;100511.53;;;19.87;80.11
21555;BME280;10938;44.794;-0.676;2022-11-03T09:07:39;100505.16;;;19.94;79.51
21555;BME280;10938;44.794;-0.676;2022-11-03T09:10:07;100507.81;;;19.94;79.17
21555;BME280;10938;44.794;-0.676;2022-11-03T09:12:33;100494.41;;;20.00;79.54
21555;BME280;10938;44.794;-0.676;2022-11-03T09:14:58;100500.50;;;20.02;79.37
21555;BME280;10938;44.794;-0.676;2022-11-03T09:17:24;100504.09;;;20.01;79.58
21555;BME280;10938;44.794;-0.676;2022-11-03T09:19:49;100501.16;;;20.10;79.08
21555;BME280;10938;44.794;-0.676;2022-11-03T09:22:15;100489.81;;;20.05;79.74
21555;BME280;10938;44.794;-0.676;2022-11-03T09:24:40;100490.34;;;20.18;79.42
21555;BME280;10938;44.794;-0.676;2022-11-03T09:27:05;100491.84;;;20.28;79.64
21555;BME280;10938;44.794;-0.676;2022-11-03T09:29:31;100485.22;;;20.12;80.51
21555;BME280;10938;44.794;-0.676;2022-11-03T09:31:56;100500.91;;;19.88;82.30
21555;BME280;10938;44.794;-0.676;2022-11-03T09:34:22;100490.66;;;20.07;81.50
21555;BME280;10938;44.794;-0.676;2022-11-03T09:36:48;100494.53;;;19.95;81.67
21555;BME280;10938;44.794;-0.676;2022-11-03T09:39:13;100494.88;;;19.83;83.03
21555;BME280;10938;44.794;-0.676;2022-11-03T09:41:39;100495.97;;;20.07;82.42
21555;BME280;10938;44.794;-0.676;2022-11-03T09:44:04;100505.06;;;20.26;81.94
21555;BME280;10938;44.794;-0.676;2022-11-03T09:46:30;100503.97;;;20.63;80.31
21555;BME280;10938;44.794;-0.676;2022-11-03T09:48:57;100508.53;;;20.85;79.32
21555;BME280;10938;44.794;-0.676;2022-11-03T09:51:25;100510.50;;;21.06;78.41
21555;BME280;10938;44.794;-0.676;2022-11-03T09:53:51;100503.00;;;21.21;76.41
21555;BME280;10938;44.794;-0.676;2022-11-03T09:56:18;100505.41;;;21.27;74.70
21555;BME280;10938;44.794;-0.676;2022-11-03T09:58:45;100518.03;;;21.45;74.43
21555;BME280;10938;44.794;-0.676;2022-11-03T10:01:11;100519.00;;;21.18;75.46
21555;BME280;10938;44.794;-0.676;2022-11-03T10:03:37;100497.13;;;21.36;73.90
21555;BME280;10938;44.794;-0.676;2022-11-03T10:06:06;100483.56;;;21.70;74.07
21555;BME280;10938;44.794;-0.676;2022-11-03T10:08:33;100483.44;;;22.21;75.04
21555;BME280;10938;44.794;-0.676;2022-11-03T10:11:00;100484.19;;;22.24;74.10
21555;BME280;10938;44.794;-0.676;2022-11-03T10:13:33;100484.31;;;22.43;72.42
21555;BME280;10938;44.794;-0.676;2022-11-03T10:16:02;100485.34;;;22.39;72.71
21555;BME280;10938;44.794;-0.676;2022-11-03T10:18:29;100494.53;;;22.53;72.92
21555;BME280;10938;44.794;-0.676;2022-11-03T10:20:57;100488.31;;;22.54;73.56
21555;BME280;10938;44.794;-0.676;2022-11-03T10:23:27;100489.66;;;22.65;73.17
21555;BME280;10938;44.794;-0.676;2022-11-03T10:26:02;100479.59;;;22.73;71.52
21555;BME280;10938;44.794;-0.676;2022-11-03T10:28:32;100480.31;;;22.78;70.34
21555;BME280;10938;44.794;-0.676;2022-11-03T10:31:01;100478.88;;;22.91;68.87
21555;BME280;10938;44.794;-0.676;2022-11-03T10:33:49;100473.59;;;23.11;68.65
21555;BME280;10938;44.794;-0.676;2022-11-03T10:38:41;100481.03;;;23.45;66.98
21555;BME280;10938;44.794;-0.676;2022-11-03T10:41:14;100474.84;;;24.02;65.87
21555;BME280;10938;44.794;-0.676;2022-11-03T10:43:41;100463.88;;;24.47;63.67
21555;BME280;10938;44.794;-0.676;2022-11-03T10:46:15;100464.53;;;24.33;63.56
21555;BME280;10938;44.794;-0.676;2022-11-03T10:48:40;100471.03;;;24.28;63.59
21555;BME280;10938;44.794;-0.676;2022-11-03T10:51:10;100461.25;;;24.45;63.03
21555;BME280;10938;44.794;-0.676;2022-11-03T10:53:36;100457.91;;;24.23;62.67
21555;BME280;10938;44.794;-0.676;2022-11-03T10:56:02;100450.44;;;23.92;63.04
21555;BME280;10938;44.794;-0.676;2022-11-03T10:58:28;100461.00;;;24.14;62.64
21555;BME280;10938;44.794;-0.676;2022-11-03T11:00:54;100461.69;;;23.99;62.58
21555;BME280;10938;44.794;-0.676;2022-11-03T11:03:20;100457.84;;;23.86;62.16
21555;BME280;10938;44.794;-0.676;2022-11-03T11:05:46;100445.16;;;24.11;61.15
21555;BME280;10938;44.794;-0.676;2022-11-03T11:08:14;100455.22;;;24.04;60.96
21555;BME280;10938;44.794;-0.676;2022-11-03T11:10:43;100440.75;;;23.91;61.26
21555;BME280;10938;44.794;-0.676;2022-11-03T11:15:52;100447.94;;;24.64;60.37
21555;BME280;10938;44.794;-0.676;2022-11-03T11:57:41;100441.56;;;22.92;57.73
21555;BME280;10938;44.794;-0.676;2022-11-03T12:00:17;100456.53;;;23.35;57.10
21555;BME280;10938;44.794;-0.676;2022-11-03T12:02:45;100445.13;;;23.33;56.96
21555;BME280;10938;44.794;-0.676;2022-11-03T12:05:18;100452.09;;;23.36;57.20
21555;BME280;10938;44.794;-0.676;2022-11-03T12:07:43;100443.94;;;23.40;57.11
21555;BME280;10938;44.794;-0.676;2022-11-03T12:10:16;100456.94;;;23.87;56.35
21555;BME280;10938;44.794;-0.676;2022-11-03T12:12:42;100436.69;;;23.64;56.78
21555;BME280;10938;44.794;-0.676;2022-11-03T12:20:59;100408.44;;;23.41;57.86
21555;BME280;10938;44.794;-0.676;2022-11-03T12:23:42;100433.69;;;23.31;58.37
21555;BME280;10938;44.794;-0.676;2022-11-03T12:28:57;100436.72;;;23.63;59.06
21555;BME280;10938;44.794;-0.676;2022-11-03T12:31:22;100424.53;;;23.77;59.04
21555;BME280;10938;44.794;-0.676;2022-11-03T12:33:47;100425.59;;;23.92;59.41
21555;BME280;10938;44.794;-0.676;2022-11-03T12:36:13;100436.16;;;24.14;59.72
21555;BME280;10938;44.794;-0.676;2022-11-03T12:38:38;100448.22;;;23.83;61.06
21555;BME280;10938;44.794;-0.676;2022-11-03T12:41:04;100432.81;;;23.71;62.66
21555;BME280;10938;44.794;-0.676;2022-11-03T12:43:50;100459.81;;;23.62;63.89
21555;BME280;10938;44.794;-0.676;2022-11-03T12:46:17;100443.50;;;23.29;66.34
21555;BME280;10938;44.794;-0.676;2022-11-03T12:48:43;100437.56;;;23.44;66.82
21555;BME280;10938;44.794;-0.676;2022-11-03T12:51:20;100439.63;;;23.77;67.11
21555;BME280;10938;44.794;-0.676;2022-11-03T12:53:46;100462.50;;;23.42;69.77
21555;BME280;10938;44.794;-0.676;2022-11-03T12:56:12;100456.78;;;23.51;70.24
21555;BME280;10938;44.794;-0.676;2022-11-03T12:58:38;100453.69;;;23.40;71.43
21555;BME280;10938;44.794;-0.676;2022-11-03T13:01:05;100435.81;;;23.43;72.25
21555;BME280;10938;44.794;-0.676;2022-11-03T13:03:32;100446.50;;;23.62;71.44
21555;BME280;10938;44.794;-0.676;2022-11-03T13:05:58;100447.94;;;24.08;69.35
21555;BME280;10938;44.794;-0.676;2022-11-03T13:08:24;100448.94;;;24.05;68.62
21555;BME280;10938;44.794;-0.676;2022-11-03T13:10:50;100439.16;;;24.06;68.58
21555;BME280;10938;44.794;-0.676;2022-11-03T13:13:17;100437.06;;;23.94;69.46
21555;BME280;10938;44.794;-0.676;2022-11-03T13:15:42;100400.72;;;23.74;70.32
21555;BME280;10938;44.794;-0.676;2022-11-03T13:18:08;100412.31;;;24.10;69.38
21555;BME280;10938;44.794;-0.676;2022-11-03T13:20:34;100410.47;;;23.35;71.77
21555;BME280;10938;44.794;-0.676;2022-11-03T13:23:01;100428.09;;;22.75;74.72
21555;BME280;10938;44.794;-0.676;2022-11-03T13:25:26;100443.22;;;22.75;75.90
21555;BME280;10938;44.794;-0.676;2022-11-03T13:27:53;100426.88;;;22.84;75.84
21555;BME280;10938;44.794;-0.676;2022-11-03T13:30:23;100423.91;;;22.70;75.04
21555;BME280;10938;44.794;-0.676;2022-11-03T13:32:49;100440.34;;;22.57;75.58
21555;BME280;10938;44.794;-0.676;2022-11-03T13:35:15;100478.00;;;22.45;81.21
21555;BME280;10938;44.794;-0.676;2022-11-03T13:37:41;100490.47;;;22.22;85.12
21555;BME280;10938;44.794;-0.676;2022-11-03T13:40:07;100493.16;;;22.43;83.17
21555;BME280;10938;44.794;-0.676;2022-11-03T13:42:33;100499.56;;;22.61;78.49
21555;BME280;10938;44.794;-0.676;2022-11-03T13:44:59;100507.31;;;22.66;75.97
21555;BME280;10938;44.794;-0.676;2022-11-03T13:47:24;100503.06;;;22.85;72.37
21555;BME280;10938;44.794;-0.676;2022-11-03T13:49:50;100532.19;;;22.65;71.91
21555;BME280;10938;44.794;-0.676;2022-11-03T13:52:20;100524.69;;;22.29;71.27
21555;BME280;10938;44.794;-0.676;2022-11-03T13:54:46;100551.91;;;22.13;72.22
21555;BME280;10938;44.794;-0.676;2022-11-03T13:57:12;100560.19;;;21.79;73.83
21555;BME280;10938;44.794;-0.676;2022-11-03T13:59:37;100542.47;;;21.54;75.67
21555;BME280;10938;44.794;-0.676;2022-11-03T14:02:04;100562.91;;;21.77;75.27
21555;BME280;10938;44.794;-0.676;2022-11-03T14:04:30;100588.91;;;21.92;74.76
21555;BME280;10938;44.794;-0.676;2022-11-03T14:06:56;100609.34;;;21.90;73.66